FDX223 EGFF-EGNT
Flight info
| Callsign | FDX223 |
|---|---|
| Flight time | N/A |
| Altitude | 24000 |
| Route | BCN P69 DIZIM N864 KISWO/N0454F270 DCT AVTIC DCT ANJAK/N0461F280 N38 NOKIN UP17 POL |
| Aircraft | MD11/H-SDE1E2E3FGHIJ2J3J4J5M1RWXY/LB1D1 |
Departure
| Time | 2026-05-08 21:33 |
|---|---|
| Airport | Cardiff International Airport (EGFF) |
Arrival
| Time | N/A |
|---|---|
| Airport | Newcastle International Airport (EGNT) |
| Time | Latitude | Longitude | Altitude | Speed | Heading |
|---|---|---|---|---|---|
| 2026-05-08 21:18 | 51.39917 | -3.34317 | 232 ft | 0 kts | 297° |
| 2026-05-08 21:25 | 51.39913 | -3.34305 | 228 ft | 4 kts | 291° |
| 2026-05-08 21:25 | 51.39907 | -3.34271 | 229 ft | 4 kts | 252° |
| 2026-05-08 21:26 | 51.39918 | -3.34243 | 230 ft | 4 kts | 211° |
| 2026-05-08 21:26 | 51.39940 | -3.34225 | 230 ft | 2 kts | 207° |
| 2026-05-08 21:26 | 51.39945 | -3.34221 | 233 ft | 0 kts | 207° |
| 2026-05-08 21:29 | 51.39937 | -3.34227 | 230 ft | 5 kts | 207° |
| 2026-05-08 21:29 | 51.39884 | -3.34271 | 231 ft | 10 kts | 207° |
| 2026-05-08 21:29 | 51.39862 | -3.34310 | 229 ft | 5 kts | 247° |
| 2026-05-08 21:29 | 51.39871 | -3.34409 | 229 ft | 15 kts | 291° |
| 2026-05-08 21:30 | 51.39917 | -3.34566 | 232 ft | 15 kts | 296° |
| 2026-05-08 21:30 | 51.39967 | -3.34724 | 227 ft | 17 kts | 296° |
| 2026-05-08 21:30 | 51.40021 | -3.34895 | 229 ft | 17 kts | 296° |
| 2026-05-08 21:30 | 51.40083 | -3.35086 | 231 ft | 20 kts | 298° |
| 2026-05-08 21:31 | 51.40142 | -3.35268 | 227 ft | 18 kts | 295° |
| 2026-05-08 21:31 | 51.40135 | -3.35444 | 231 ft | 15 kts | 237° |
| 2026-05-08 21:31 | 51.40066 | -3.35517 | 229 ft | 3 kts | 186° |
| 2026-05-08 21:31 | 51.40045 | -3.35502 | 223 ft | 7 kts | 149° |
| 2026-05-08 21:32 | 51.40020 | -3.35455 | 227 ft | 5 kts | 120° |
| 2026-05-08 21:32 | 51.39966 | -3.35288 | 226 ft | 56 kts | 117° |
| 2026-05-08 21:32 | 51.39641 | -3.34264 | 228 ft | 147 kts | 117° |
| 2026-05-08 21:32 | 51.39095 | -3.32567 | 696 ft | 172 kts | 118° |
| 2026-05-08 21:33 | 51.38510 | -3.30931 | 1902 ft | 167 kts | 122° |
| 2026-05-08 21:33 | 51.37948 | -3.29313 | 3035 ft | 170 kts | 118° |
| 2026-05-08 21:33 | 51.37427 | -3.27528 | 3830 ft | 199 kts | 117° |
| 2026-05-08 21:33 | 51.36759 | -3.25218 | 4019 ft | 248 kts | 116° |
| 2026-05-08 21:34 | 51.36019 | -3.22681 | 4734 ft | 261 kts | 116° |
| 2026-05-08 21:34 | 51.35273 | -3.19984 | 5114 ft | 263 kts | 111° |
| 2026-05-08 21:34 | 51.34938 | -3.17101 | 5484 ft | 267 kts | 90° |
| 2026-05-08 21:34 | 51.35415 | -3.14230 | 6084 ft | 272 kts | 60° |
| 2026-05-08 21:35 | 51.36701 | -3.12017 | 7037 ft | 278 kts | 33° |
| 2026-05-08 21:35 | 51.38537 | -3.11043 | 7887 ft | 284 kts | 2° |
| 2026-05-08 21:35 | 51.40510 | -3.11381 | 8721 ft | 289 kts | 346° |
| 2026-05-08 21:35 | 51.42470 | -3.12219 | 9609 ft | 294 kts | 342° |
| 2026-05-08 21:36 | 51.44457 | -3.13192 | 10273 ft | 310 kts | 342° |
| 2026-05-08 21:36 | 51.46624 | -3.14264 | 10398 ft | 341 kts | 342° |
| 2026-05-08 21:36 | 51.48995 | -3.15414 | 10636 ft | 366 kts | 342° |
| 2026-05-08 21:36 | 51.51457 | -3.16580 | 11486 ft | 371 kts | 343° |
| 2026-05-08 21:37 | 51.53954 | -3.17746 | 12391 ft | 376 kts | 343° |
| 2026-05-08 21:37 | 51.56485 | -3.18916 | 13263 ft | 381 kts | 343° |
| 2026-05-08 21:37 | 51.59016 | -3.20082 | 14081 ft | 385 kts | 343° |
| 2026-05-08 21:37 | 51.61607 | -3.21272 | 14893 ft | 390 kts | 343° |
| 2026-05-08 21:38 | 51.64234 | -3.22482 | 15668 ft | 395 kts | 343° |
| 2026-05-08 21:38 | 51.66893 | -3.23708 | 16438 ft | 400 kts | 343° |
| 2026-05-08 21:38 | 51.69581 | -3.24950 | 17190 ft | 405 kts | 343° |
| 2026-05-08 21:38 | 51.72342 | -3.25989 | 17868 ft | 411 kts | 353° |
| 2026-05-08 21:39 | 51.75210 | -3.26009 | 18576 ft | 416 kts | 4° |
| 2026-05-08 21:39 | 51.78104 | -3.25417 | 19152 ft | 422 kts | 9° |
| 2026-05-08 21:39 | 51.81016 | -3.24597 | 19797 ft | 427 kts | 10° |
| 2026-05-08 21:39 | 51.83949 | -3.23734 | 20421 ft | 431 kts | 9° |
| 2026-05-08 21:40 | 51.86918 | -3.22891 | 21045 ft | 435 kts | 8° |
| 2026-05-08 21:40 | 51.89921 | -3.22081 | 21665 ft | 439 kts | 8° |